sensor_id;sensor_type;location;lat;lon;timestamp;P1;durP1;ratioP1;P2;durP2;ratioP2
6209;SDS011;3138;52.550;13.148;2022-09-21T00:01:21;8.60;;;7.47;;
6209;SDS011;3138;52.550;13.148;2022-09-21T00:03:50;20.10;;;7.30;;
6209;SDS011;3138;52.550;13.148;2022-09-21T00:06:19;9.60;;;7.47;;
6209;SDS011;3138;52.550;13.148;2022-09-21T00:08:48;9.73;;;6.23;;
6209;SDS011;3138;52.550;13.148;2022-09-21T00:11:15;8.57;;;7.43;;
6209;SDS011;3138;52.550;13.148;2022-09-21T00:13:46;7.00;;;6.27;;
6209;SDS011;3138;52.550;13.148;2022-09-21T00:16:13;31.40;;;6.50;;
6209;SDS011;3138;52.550;13.148;2022-09-21T00:18:40;7.87;;;6.57;;
6209;SDS011;3138;52.550;13.148;2022-09-21T00:21:08;11.90;;;6.53;;
6209;SDS011;3138;52.550;13.148;2022-09-21T00:23:36;11.10;;;7.07;;
6209;SDS011;3138;52.550;13.148;2022-09-21T00:26:05;9.23;;;6.57;;
6209;SDS011;3138;52.550;13.148;2022-09-21T00:28:34;9.10;;;6.33;;
6209;SDS011;3138;52.550;13.148;2022-09-21T00:31:01;7.23;;;6.07;;
6209;SDS011;3138;52.550;13.148;2022-09-21T00:33:29;21.40;;;5.10;;
6209;SDS011;3138;52.550;13.148;2022-09-21T00:36:00;9.23;;;5.40;;
6209;SDS011;3138;52.550;13.148;2022-09-21T00:38:28;7.20;;;5.90;;
6209;SDS011;3138;52.550;13.148;2022-09-21T00:40:55;6.40;;;5.80;;
6209;SDS011;3138;52.550;13.148;2022-09-21T00:43:23;4.97;;;4.43;;
6209;SDS011;3138;52.550;13.148;2022-09-21T00:45:52;6.03;;;5.30;;
6209;SDS011;3138;52.550;13.148;2022-09-21T00:48:24;11.43;;;6.43;;
6209;SDS011;3138;52.550;13.148;2022-09-21T00:50:51;5.70;;;5.20;;
6209;SDS011;3138;52.550;13.148;2022-09-21T00:53:21;15.47;;;6.57;;
6209;SDS011;3138;52.550;13.148;2022-09-21T00:55:49;6.00;;;5.03;;
6209;SDS011;3138;52.550;13.148;2022-09-21T00:58:19;5.10;;;4.80;;
6209;SDS011;3138;52.550;13.148;2022-09-21T01:00:51;7.87;;;5.93;;
6209;SDS011;3138;52.550;13.148;2022-09-21T01:03:18;8.63;;;6.17;;
6209;SDS011;3138;52.550;13.148;2022-09-21T01:05:45;5.43;;;4.93;;
6209;SDS011;3138;52.550;13.148;2022-09-21T01:08:12;9.73;;;5.50;;
6209;SDS011;3138;52.550;13.148;2022-09-21T01:10:43;6.70;;;5.50;;
6209;SDS011;3138;52.550;13.148;2022-09-21T01:13:21;10.43;;;5.17;;
6209;SDS011;3138;52.550;13.148;2022-09-21T01:16:00;9.37;;;5.07;;
6209;SDS011;3138;52.550;13.148;2022-09-21T01:18:34;5.93;;;5.10;;
6209;SDS011;3138;52.550;13.148;2022-09-21T01:23:56;10.00;;;5.10;;
6209;SDS011;3138;52.550;13.148;2022-09-21T01:26:47;5.40;;;4.93;;
6209;SDS011;3138;52.550;13.148;2022-09-21T01:29:36;8.07;;;5.80;;
6209;SDS011;3138;52.550;13.148;2022-09-21T01:32:09;4.73;;;4.33;;
6209;SDS011;3138;52.550;13.148;2022-09-21T01:34:41;5.10;;;4.67;;
6209;SDS011;3138;52.550;13.148;2022-09-21T01:37:15;4.73;;;4.37;;
6209;SDS011;3138;52.550;13.148;2022-09-21T01:39:46;8.23;;;5.27;;
6209;SDS011;3138;52.550;13.148;2022-09-21T01:42:16;8.43;;;4.80;;
6209;SDS011;3138;52.550;13.148;2022-09-21T01:44:46;6.03;;;4.90;;
6209;SDS011;3138;52.550;13.148;2022-09-21T01:47:14;6.50;;;4.20;;
6209;SDS011;3138;52.550;13.148;2022-09-21T01:49:43;15.50;;;5.13;;
6209;SDS011;3138;52.550;13.148;2022-09-21T01:52:14;4.77;;;4.37;;
6209;SDS011;3138;52.550;13.148;2022-09-21T01:54:46;17.80;;;5.07;;
6209;SDS011;3138;52.550;13.148;2022-09-21T01:57:20;21.87;;;4.90;;
6209;SDS011;3138;52.550;13.148;2022-09-21T01:59:54;6.13;;;5.53;;
6209;SDS011;3138;52.550;13.148;2022-09-21T02:02:24;8.60;;;5.43;;
6209;SDS011;3138;52.550;13.148;2022-09-21T02:04:56;5.00;;;4.63;;
6209;SDS011;3138;52.550;13.148;2022-09-21T02:07:25;7.63;;;5.73;;
6209;SDS011;3138;52.550;13.148;2022-09-21T02:09:52;4.93;;;4.47;;
6209;SDS011;3138;52.550;13.148;2022-09-21T02:12:20;6.40;;;4.70;;
6209;SDS011;3138;52.550;13.148;2022-09-21T02:14:47;7.60;;;4.30;;
6209;SDS011;3138;52.550;13.148;2022-09-21T02:17:25;7.33;;;5.17;;
6209;SDS011;3138;52.550;13.148;2022-09-21T02:20:02;4.87;;;4.37;;
6209;SDS011;3138;52.550;13.148;2022-09-21T02:22:36;8.00;;;4.93;;
6209;SDS011;3138;52.550;13.148;2022-09-21T02:25:12;28.07;;;5.00;;
6209;SDS011;3138;52.550;13.148;2022-09-21T02:27:44;7.00;;;4.73;;
6209;SDS011;3138;52.550;13.148;2022-09-21T02:30:19;22.23;;;6.33;;
6209;SDS011;3138;52.550;13.148;2022-09-21T02:32:49;11.90;;;5.53;;
6209;SDS011;3138;52.550;13.148;2022-09-21T02:35:24;7.77;;;5.40;;
6209;SDS011;3138;52.550;13.148;2022-09-21T02:37:59;8.93;;;5.40;;
6209;SDS011;3138;52.550;13.148;2022-09-21T02:40:34;11.80;;;5.57;;
6209;SDS011;3138;52.550;13.148;2022-09-21T02:43:06;27.87;;;5.37;;
6209;SDS011;3138;52.550;13.148;2022-09-21T02:45:37;4.43;;;4.03;;
6209;SDS011;3138;52.550;13.148;2022-09-21T02:48:11;5.77;;;4.33;;
6209;SDS011;3138;52.550;13.148;2022-09-21T02:50:44;10.10;;;4.93;;
6209;SDS011;3138;52.550;13.148;2022-09-21T02:53:14;4.37;;;4.07;;
6209;SDS011;3138;52.550;13.148;2022-09-21T02:55:46;5.00;;;4.43;;
6209;SDS011;3138;52.550;13.148;2022-09-21T02:58:15;6.90;;;4.13;;
6209;SDS011;3138;52.550;13.148;2022-09-21T03:00:45;5.87;;;4.00;;
6209;SDS011;3138;52.550;13.148;2022-09-21T03:03:17;5.57;;;4.20;;
6209;SDS011;3138;52.550;13.148;2022-09-21T03:05:46;13.90;;;4.10;;
6209;SDS011;3138;52.550;13.148;2022-09-21T03:08:14;4.80;;;4.30;;
6209;SDS011;3138;52.550;13.148;2022-09-21T03:10:41;8.63;;;4.90;;
6209;SDS011;3138;52.550;13.148;2022-09-21T03:13:08;9.90;;;4.17;;
6209;SDS011;3138;52.550;13.148;2022-09-21T03:15:35;4.00;;;3.70;;
6209;SDS011;3138;52.550;13.148;2022-09-21T03:18:02;3.70;;;3.40;;
6209;SDS011;3138;52.550;13.148;2022-09-21T03:20:32;5.30;;;3.97;;
6209;SDS011;3138;52.550;13.148;2022-09-21T03:22:59;3.57;;;3.33;;
6209;SDS011;3138;52.550;13.148;2022-09-21T03:25:26;7.43;;;3.97;;
6209;SDS011;3138;52.550;13.148;2022-09-21T03:27:53;11.53;;;3.83;;
6209;SDS011;3138;52.550;13.148;2022-09-21T03:30:20;11.10;;;3.60;;
6209;SDS011;3138;52.550;13.148;2022-09-21T03:32:47;4.60;;;3.60;;
6209;SDS011;3138;52.550;13.148;2022-09-21T03:35:14;63.23;;;5.80;;
6209;SDS011;3138;52.550;13.148;2022-09-21T03:37:42;10.80;;;4.97;;
6209;SDS011;3138;52.550;13.148;2022-09-21T03:40:10;75.30;;;6.90;;
6209;SDS011;3138;52.550;13.148;2022-09-21T03:42:37;8.77;;;5.37;;
6209;SDS011;3138;52.550;13.148;2022-09-21T03:45:04;13.00;;;4.67;;
6209;SDS011;3138;52.550;13.148;2022-09-21T03:47:31;18.17;;;5.70;;
6209;SDS011;3138;52.550;13.148;2022-09-21T03:49:59;7.70;;;5.70;;
6209;SDS011;3138;52.550;13.148;2022-09-21T03:52:25;6.60;;;4.97;;
6209;SDS011;3138;52.550;13.148;2022-09-21T03:54:54;24.97;;;6.23;;
6209;SDS011;3138;52.550;13.148;2022-09-21T03:57:20;6.40;;;4.33;;
6209;SDS011;3138;52.550;13.148;2022-09-21T03:59:47;4.70;;;4.20;;
6209;SDS011;3138;52.550;13.148;2022-09-21T04:02:14;7.20;;;3.80;;
6209;SDS011;3138;52.550;13.148;2022-09-21T04:04:41;4.10;;;3.57;;
6209;SDS011;3138;52.550;13.148;2022-09-21T04:07:07;3.10;;;2.80;;
6209;SDS011;3138;52.550;13.148;2022-09-21T04:09:34;4.33;;;4.03;;
6209;SDS011;3138;52.550;13.148;2022-09-21T04:12:02;3.73;;;3.53;;
6209;SDS011;3138;52.550;13.148;2022-09-21T04:14:29;3.90;;;3.37;;
6209;SDS011;3138;52.550;13.148;2022-09-21T04:16:56;14.30;;;3.80;;
6209;SDS011;3138;52.550;13.148;2022-09-21T04:19:23;4.97;;;3.37;;
6209;SDS011;3138;52.550;13.148;2022-09-21T04:21:50;8.30;;;3.77;;
6209;SDS011;3138;52.550;13.148;2022-09-21T04:24:17;9.43;;;3.53;;
6209;SDS011;3138;52.550;13.148;2022-09-21T04:26:44;3.83;;;3.37;;
6209;SDS011;3138;52.550;13.148;2022-09-21T04:29:13;4.70;;;4.20;;
6209;SDS011;3138;52.550;13.148;2022-09-21T04:31:40;4.63;;;4.20;;
6209;SDS011;3138;52.550;13.148;2022-09-21T04:34:08;3.67;;;3.47;;
6209;SDS011;3138;52.550;13.148;2022-09-21T04:36:38;4.77;;;3.40;;
6209;SDS011;3138;52.550;13.148;2022-09-21T04:39:05;11.70;;;3.40;;
6209;SDS011;3138;52.550;13.148;2022-09-21T04:41:32;4.97;;;3.60;;
6209;SDS011;3138;52.550;13.148;2022-09-21T04:43:58;8.87;;;3.97;;
6209;SDS011;3138;52.550;13.148;2022-09-21T04:46:27;5.63;;;4.23;;
6209;SDS011;3138;52.550;13.148;2022-09-21T04:48:54;6.87;;;4.10;;
6209;SDS011;3138;52.550;13.148;2022-09-21T04:51:20;3.33;;;3.13;;
6209;SDS011;3138;52.550;13.148;2022-09-21T04:53:49;4.10;;;3.80;;
6209;SDS011;3138;52.550;13.148;2022-09-21T04:56:16;4.70;;;3.90;;
6209;SDS011;3138;52.550;13.148;2022-09-21T04:58:43;15.30;;;5.17;;
6209;SDS011;3138;52.550;13.148;2022-09-21T05:01:10;5.33;;;4.43;;
6209;SDS011;3138;52.550;13.148;2022-09-21T05:03:38;6.70;;;3.83;;
6209;SDS011;3138;52.550;13.148;2022-09-21T05:06:05;5.30;;;4.37;;
6209;SDS011;3138;52.550;13.148;2022-09-21T05:08:33;5.47;;;3.90;;
6209;SDS011;3138;52.550;13.148;2022-09-21T05:11:17;6.40;;;3.90;;
6209;SDS011;3138;52.550;13.148;2022-09-21T05:13:44;8.60;;;3.93;;
6209;SDS011;3138;52.550;13.148;2022-09-21T05:16:11;19.03;;;4.60;;
6209;SDS011;3138;52.550;13.148;2022-09-21T05:18:40;7.30;;;3.80;;
6209;SDS011;3138;52.550;13.148;2022-09-21T05:21:06;4.80;;;4.40;;
6209;SDS011;3138;52.550;13.148;2022-09-21T05:23:36;5.33;;;3.57;;
6209;SDS011;3138;52.550;13.148;2022-09-21T05:26:03;10.20;;;4.33;;
6209;SDS011;3138;52.550;13.148;2022-09-21T05:28:30;3.90;;;3.50;;
6209;SDS011;3138;52.550;13.148;2022-09-21T05:30:59;21.37;;;4.77;;
6209;SDS011;3138;52.550;13.148;2022-09-21T05:33:29;8.10;;;4.00;;
6209;SDS011;3138;52.550;13.148;2022-09-21T05:36:01;8.80;;;4.57;;
6209;SDS011;3138;52.550;13.148;2022-09-21T05:38:35;10.67;;;5.27;;
6209;SDS011;3138;52.550;13.148;2022-09-21T05:41:02;12.30;;;4.37;;
6209;SDS011;3138;52.550;13.148;2022-09-21T05:43:30;4.67;;;4.23;;
6209;SDS011;3138;52.550;13.148;2022-09-21T05:45:57;5.20;;;4.70;;
6209;SDS011;3138;52.550;13.148;2022-09-21T05:48:31;14.90;;;6.43;;
6209;SDS011;3138;52.550;13.148;2022-09-21T05:51:08;6.90;;;5.17;;
6209;SDS011;3138;52.550;13.148;2022-09-21T05:53:45;18.20;;;5.70;;
6209;SDS011;3138;52.550;13.148;2022-09-21T05:56:30;15.17;;;6.97;;
6209;SDS011;3138;52.550;13.148;2022-09-21T05:59:08;21.83;;;6.07;;
6209;SDS011;3138;52.550;13.148;2022-09-21T06:01:55;9.67;;;5.40;;
6209;SDS011;3138;52.550;13.148;2022-09-21T06:04:29;6.07;;;5.47;;
6209;SDS011;3138;52.550;13.148;2022-09-21T06:06:57;11.93;;;5.87;;
6209;SDS011;3138;52.550;13.148;2022-09-21T06:09:24;7.57;;;5.93;;
6209;SDS011;3138;52.550;13.148;2022-09-21T06:11:51;12.83;;;6.40;;
6209;SDS011;3138;52.550;13.148;2022-09-21T06:14:18;13.03;;;6.03;;
6209;SDS011;3138;52.550;13.148;2022-09-21T06:16:49;8.17;;;5.60;;
6209;SDS011;3138;52.550;13.148;2022-09-21T06:19:16;6.23;;;5.37;;
6209;SDS011;3138;52.550;13.148;2022-09-21T06:21:44;8.00;;;6.23;;
6209;SDS011;3138;52.550;13.148;2022-09-21T06:24:12;13.33;;;5.87;;
6209;SDS011;3138;52.550;13.148;2022-09-21T06:26:38;16.80;;;6.10;;
6209;SDS011;3138;52.550;13.148;2022-09-21T06:29:05;10.83;;;5.30;;
6209;SDS011;3138;52.550;13.148;2022-09-21T06:31:32;7.43;;;5.73;;
6209;SDS011;3138;52.550;13.148;2022-09-21T06:33:59;10.37;;;6.40;;
6209;SDS011;3138;52.550;13.148;2022-09-21T06:36:26;11.57;;;6.07;;
6209;SDS011;3138;52.550;13.148;2022-09-21T06:38:52;16.97;;;5.83;;
6209;SDS011;3138;52.550;13.148;2022-09-21T06:41:20;8.03;;;5.10;;
6209;SDS011;3138;52.550;13.148;2022-09-21T06:43:47;11.90;;;5.37;;
6209;SDS011;3138;52.550;13.148;2022-09-21T06:46:14;5.20;;;4.70;;
6209;SDS011;3138;52.550;13.148;2022-09-21T06:48:40;24.53;;;6.50;;
6209;SDS011;3138;52.550;13.148;2022-09-21T06:51:08;6.80;;;5.87;;
6209;SDS011;3138;52.550;13.148;2022-09-21T06:53:35;8.20;;;6.03;;
6209;SDS011;3138;52.550;13.148;2022-09-21T06:56:02;18.03;;;6.47;;
6209;SDS011;3138;52.550;13.148;2022-09-21T06:58:31;13.40;;;6.53;;
6209;SDS011;3138;52.550;13.148;2022-09-21T07:01:02;11.30;;;6.70;;
6209;SDS011;3138;52.550;13.148;2022-09-21T07:03:30;25.30;;;7.00;;
6209;SDS011;3138;52.550;13.148;2022-09-21T07:05:57;11.00;;;6.47;;
6209;SDS011;3138;52.550;13.148;2022-09-21T07:08:23;14.37;;;6.87;;
6209;SDS011;3138;52.550;13.148;2022-09-21T07:10:50;12.00;;;6.67;;
6209;SDS011;3138;52.550;13.148;2022-09-21T07:13:17;9.23;;;6.17;;
6209;SDS011;3138;52.550;13.148;2022-09-21T07:15:45;14.30;;;6.30;;
6209;SDS011;3138;52.550;13.148;2022-09-21T07:18:11;10.83;;;6.03;;
6209;SDS011;3138;52.550;13.148;2022-09-21T07:20:39;15.83;;;6.00;;
6209;SDS011;3138;52.550;13.148;2022-09-21T07:23:09;6.07;;;4.77;;
6209;SDS011;3138;52.550;13.148;2022-09-21T07:25:38;15.13;;;5.83;;
6209;SDS011;3138;52.550;13.148;2022-09-21T07:28:05;7.20;;;5.13;;
6209;SDS011;3138;52.550;13.148;2022-09-21T07:30:32;11.63;;;5.67;;
6209;SDS011;3138;52.550;13.148;2022-09-21T07:33:00;17.07;;;6.50;;
6209;SDS011;3138;52.550;13.148;2022-09-21T07:35:27;13.90;;;6.93;;
6209;SDS011;3138;52.550;13.148;2022-09-21T07:37:56;13.27;;;6.67;;
6209;SDS011;3138;52.550;13.148;2022-09-21T07:40:23;8.70;;;5.70;;
6209;SDS011;3138;52.550;13.148;2022-09-21T07:42:50;6.33;;;5.40;;
6209;SDS011;3138;52.550;13.148;2022-09-21T07:45:16;15.30;;;7.07;;
6209;SDS011;3138;52.550;13.148;2022-09-21T07:47:43;12.90;;;6.93;;
6209;SDS011;3138;52.550;13.148;2022-09-21T07:50:11;9.30;;;6.00;;
6209;SDS011;3138;52.550;13.148;2022-09-21T07:52:38;12.60;;;6.60;;
6209;SDS011;3138;52.550;13.148;2022-09-21T07:55:05;9.17;;;5.93;;
6209;SDS011;3138;52.550;13.148;2022-09-21T07:57:32;12.03;;;7.33;;
6209;SDS011;3138;52.550;13.148;2022-09-21T08:00:16;9.23;;;5.70;;
6209;SDS011;3138;52.550;13.148;2022-09-21T08:02:44;10.40;;;6.70;;
6209;SDS011;3138;52.550;13.148;2022-09-21T08:05:12;5.23;;;4.90;;
6209;SDS011;3138;52.550;13.148;2022-09-21T08:07:38;6.47;;;5.27;;
6209;SDS011;3138;52.550;13.148;2022-09-21T08:10:06;12.17;;;6.50;;
6209;SDS011;3138;52.550;13.148;2022-09-21T08:12:33;11.13;;;6.70;;
6209;SDS011;3138;52.550;13.148;2022-09-21T08:15:00;9.47;;;5.40;;
6209;SDS011;3138;52.550;13.148;2022-09-21T08:17:26;6.83;;;5.97;;
6209;SDS011;3138;52.550;13.148;2022-09-21T08:19:53;9.80;;;5.83;;
6209;SDS011;3138;52.550;13.148;2022-09-21T08:22:21;7.97;;;6.03;;
6209;SDS011;3138;52.550;13.148;2022-09-21T08:24:50;13.30;;;6.13;;
6209;SDS011;3138;52.550;13.148;2022-09-21T08:27:17;9.33;;;7.37;;
6209;SDS011;3138;52.550;13.148;2022-09-21T08:29:44;6.33;;;5.60;;
6209;SDS011;3138;52.550;13.148;2022-09-21T08:32:11;5.40;;;4.80;;
6209;SDS011;3138;52.550;13.148;2022-09-21T08:34:38;14.10;;;5.97;;
6209;SDS011;3138;52.550;13.148;2022-09-21T08:37:04;13.10;;;5.10;;
6209;SDS011;3138;52.550;13.148;2022-09-21T08:39:33;6.67;;;5.27;;
6209;SDS011;3138;52.550;13.148;2022-09-21T08:42:04;9.20;;;5.27;;
6209;SDS011;3138;52.550;13.148;2022-09-21T08:44:44;9.33;;;5.43;;
6209;SDS011;3138;52.550;13.148;2022-09-21T08:47:18;20.43;;;4.73;;
6209;SDS011;3138;52.550;13.148;2022-09-21T08:49:48;4.97;;;4.10;;
6209;SDS011;3138;52.550;13.148;2022-09-21T08:52:18;4.50;;;4.07;;
6209;SDS011;3138;52.550;13.148;2022-09-21T08:54:50;5.13;;;4.33;;
6209;SDS011;3138;52.550;13.148;2022-09-21T08:57:22;6.33;;;2.80;;
6209;SDS011;3138;52.550;13.148;2022-09-21T08:59:58;13.90;;;3.80;;
6209;SDS011;3138;52.550;13.148;2022-09-21T09:02:32;7.43;;;4.03;;
6209;SDS011;3138;52.550;13.148;2022-09-21T09:05:07;5.53;;;2.50;;
6209;SDS011;3138;52.550;13.148;2022-09-21T09:07:51;4.10;;;2.90;;
6209;SDS011;3138;52.550;13.148;2022-09-21T09:10:32;8.90;;;2.80;;
6209;SDS011;3138;52.550;13.148;2022-09-21T09:13:06;3.00;;;2.70;;
6209;SDS011;3138;52.550;13.148;2022-09-21T09:15:49;4.43;;;2.10;;
6209;SDS011;3138;52.550;13.148;2022-09-21T09:18:27;6.10;;;2.70;;
6209;SDS011;3138;52.550;13.148;2022-09-21T09:21:00;3.97;;;1.60;;
6209;SDS011;3138;52.550;13.148;2022-09-21T09:23:33;4.00;;;1.40;;
6209;SDS011;3138;52.550;13.148;2022-09-21T09:26:05;4.13;;;1.67;;
6209;SDS011;3138;52.550;13.148;2022-09-21T09:28:37;2.30;;;1.30;;
6209;SDS011;3138;52.550;13.148;2022-09-21T09:31:10;0.90;;;0.90;;
6209;SDS011;3138;52.550;13.148;2022-09-21T09:33:45;3.40;;;1.20;;
6209;SDS011;3138;52.550;13.148;2022-09-21T09:36:17;4.70;;;1.50;;
6209;SDS011;3138;52.550;13.148;2022-09-21T09:38:54;5.37;;;1.70;;
6209;SDS011;3138;52.550;13.148;2022-09-21T09:41:29;1.60;;;1.50;;
6209;SDS011;3138;52.550;13.148;2022-09-21T09:44:13;0.97;;;0.97;;
6209;SDS011;3138;52.550;13.148;2022-09-21T09:46:56;1.17;;;1.00;;
6209;SDS011;3138;52.550;13.148;2022-09-21T09:49:32;2.13;;;1.20;;
6209;SDS011;3138;52.550;13.148;2022-09-21T09:52:10;0.87;;;0.87;;
6209;SDS011;3138;52.550;13.148;2022-09-21T09:54:40;3.57;;;0.90;;
6209;SDS011;3138;52.550;13.148;2022-09-21T09:57:09;1.03;;;0.73;;
6209;SDS011;3138;52.550;13.148;2022-09-21T09:59:38;10.60;;;0.90;;
6209;SDS011;3138;52.550;13.148;2022-09-21T10:02:17;1.13;;;0.90;;
6209;SDS011;3138;52.550;13.148;2022-09-21T10:04:53;0.63;;;0.63;;
6209;SDS011;3138;52.550;13.148;2022-09-21T10:07:34;3.00;;;0.70;;
6209;SDS011;3138;52.550;13.148;2022-09-21T10:10:03;0.93;;;0.93;;
6209;SDS011;3138;52.550;13.148;2022-09-21T10:13:04;3.13;;;0.73;;
6209;SDS011;3138;52.550;13.148;2022-09-21T10:15:34;1.37;;;0.97;;
6209;SDS011;3138;52.550;13.148;2022-09-21T10:18:13;0.70;;;0.70;;
6209;SDS011;3138;52.550;13.148;2022-09-21T10:20:50;1.00;;;0.67;;
6209;SDS011;3138;52.550;13.148;2022-09-21T10:23:22;3.07;;;0.90;;
6209;SDS011;3138;52.550;13.148;2022-09-21T10:25:54;3.30;;;1.20;;
6209;SDS011;3138;52.550;13.148;2022-09-21T10:28:25;2.10;;;1.30;;
6209;SDS011;3138;52.550;13.148;2022-09-21T10:31:06;1.57;;;1.47;;
6209;SDS011;3138;52.550;13.148;2022-09-21T10:33:41;2.30;;;1.10;;
6209;SDS011;3138;52.550;13.148;2022-09-21T10:36:23;4.23;;;1.10;;
6209;SDS011;3138;52.550;13.148;2022-09-21T10:41:56;1.40;;;1.03;;
6209;SDS011;3138;52.550;13.148;2022-09-21T10:44:28;1.90;;;1.20;;
6209;SDS011;3138;52.550;13.148;2022-09-21T10:47:03;1.07;;;0.77;;
6209;SDS011;3138;52.550;13.148;2022-09-21T10:49:43;1.70;;;1.00;;
6209;SDS011;3138;52.550;13.148;2022-09-21T10:52:12;1.07;;;1.00;;
6209;SDS011;3138;52.550;13.148;2022-09-21T10:54:39;7.60;;;0.90;;
6209;SDS011;3138;52.550;13.148;2022-09-21T10:57:08;2.97;;;0.83;;
6209;SDS011;3138;52.550;13.148;2022-09-21T10:59:42;4.93;;;1.23;;
6209;SDS011;3138;52.550;13.148;2022-09-21T11:05:11;3.07;;;1.13;;
6209;SDS011;3138;52.550;13.148;2022-09-21T11:07:43;1.47;;;1.13;;
6209;SDS011;3138;52.550;13.148;2022-09-21T11:10:17;1.53;;;0.90;;
6209;SDS011;3138;52.550;13.148;2022-09-21T11:12:52;1.00;;;1.00;;
6209;SDS011;3138;52.550;13.148;2022-09-21T11:15:36;1.17;;;0.70;;
6209;SDS011;3138;52.550;13.148;2022-09-21T11:18:12;2.40;;;1.20;;
6209;SDS011;3138;52.550;13.148;2022-09-21T11:20:46;1.30;;;1.30;;
6209;SDS011;3138;52.550;13.148;2022-09-21T11:23:20;4.83;;;1.67;;
6209;SDS011;3138;52.550;13.148;2022-09-21T11:25:58;2.73;;;0.80;;
6209;SDS011;3138;52.550;13.148;2022-09-21T11:28:30;1.47;;;0.93;;
6209;SDS011;3138;52.550;13.148;2022-09-21T11:31:09;1.33;;;0.97;;
6209;SDS011;3138;52.550;13.148;2022-09-21T11:33:55;1.87;;;1.10;;
6209;SDS011;3138;52.550;13.148;2022-09-21T11:36:37;1.37;;;0.80;;
6209;SDS011;3138;52.550;13.148;2022-09-21T11:39:13;8.07;;;0.87;;
6209;SDS011;3138;52.550;13.148;2022-09-21T11:41:52;1.03;;;0.67;;
6209;SDS011;3138;52.550;13.148;2022-09-21T11:44:36;4.73;;;1.10;;
6209;SDS011;3138;52.550;13.148;2022-09-21T11:47:16;0.90;;;0.90;;
6209;SDS011;3138;52.550;13.148;2022-09-21T11:50:00;3.67;;;1.37;;
6209;SDS011;3138;52.550;13.148;2022-09-21T11:52:45;1.20;;;1.20;;
6209;SDS011;3138;52.550;13.148;2022-09-21T11:58:25;1.27;;;0.90;;
6209;SDS011;3138;52.550;13.148;2022-09-21T12:00:59;1.63;;;0.50;;
6209;SDS011;3138;52.550;13.148;2022-09-21T12:03:39;4.40;;;0.97;;
6209;SDS011;3138;52.550;13.148;2022-09-21T12:06:25;0.60;;;0.60;;
6209;SDS011;3138;52.550;13.148;2022-09-21T12:09:10;0.80;;;0.80;;
6209;SDS011;3138;52.550;13.148;2022-09-21T12:11:49;0.83;;;0.70;;
6209;SDS011;3138;52.550;13.148;2022-09-21T12:14:25;1.13;;;0.90;;
6209;SDS011;3138;52.550;13.148;2022-09-21T12:16:59;2.70;;;0.87;;
6209;SDS011;3138;52.550;13.148;2022-09-21T12:19:32;3.03;;;1.30;;
6209;SDS011;3138;52.550;13.148;2022-09-21T12:22:07;3.70;;;1.00;;
6209;SDS011;3138;52.550;13.148;2022-09-21T12:24:38;1.80;;;1.53;;
6209;SDS011;3138;52.550;13.148;2022-09-21T12:27:10;1.37;;;1.17;;
6209;SDS011;3138;52.550;13.148;2022-09-21T12:29:44;0.60;;;0.60;;
6209;SDS011;3138;52.550;13.148;2022-09-21T12:32:17;5.77;;;1.20;;
6209;SDS011;3138;52.550;13.148;2022-09-21T12:34:52;6.97;;;0.70;;
6209;SDS011;3138;52.550;13.148;2022-09-21T12:37:22;6.20;;;0.80;;
6209;SDS011;3138;52.550;13.148;2022-09-21T12:39:57;2.60;;;1.00;;
6209;SDS011;3138;52.550;13.148;2022-09-21T12:42:28;1.00;;;0.90;;
6209;SDS011;3138;52.550;13.148;2022-09-21T12:45:00;0.90;;;0.83;;
6209;SDS011;3138;52.550;13.148;2022-09-21T12:47:36;6.97;;;1.17;;
6209;SDS011;3138;52.550;13.148;2022-09-21T12:50:21;2.93;;;0.83;;
6209;SDS011;3138;52.550;13.148;2022-09-21T12:52:52;1.70;;;1.00;;
6209;SDS011;3138;52.550;13.148;2022-09-21T12:55:23;0.70;;;0.70;;
6209;SDS011;3138;52.550;13.148;2022-09-21T12:58:01;3.10;;;1.07;;
6209;SDS011;3138;52.550;13.148;2022-09-21T13:00:33;1.10;;;0.63;;
6209;SDS011;3138;52.550;13.148;2022-09-21T13:03:08;0.70;;;0.70;;
6209;SDS011;3138;52.550;13.148;2022-09-21T13:05:43;0.70;;;0.70;;
6209;SDS011;3138;52.550;13.148;2022-09-21T13:08:32;2.20;;;0.50;;
6209;SDS011;3138;52.550;13.148;2022-09-21T13:11:04;6.10;;;0.80;;
6209;SDS011;3138;52.550;13.148;2022-09-21T13:13:33;0.70;;;0.70;;
6209;SDS011;3138;52.550;13.148;2022-09-21T13:16:02;0.90;;;0.80;;
6209;SDS011;3138;52.550;13.148;2022-09-21T13:18:32;2.00;;;0.80;;
6209;SDS011;3138;52.550;13.148;2022-09-21T13:21:13;0.53;;;0.53;;
6209;SDS011;3138;52.550;13.148;2022-09-21T13:23:41;0.73;;;0.73;;
6209;SDS011;3138;52.550;13.148;2022-09-21T13:26:09;2.53;;;0.50;;
6209;SDS011;3138;52.550;13.148;2022-09-21T13:34:25;6.23;;;0.60;;
6209;SDS011;3138;52.550;13.148;2022-09-21T13:37:22;3.40;;;0.70;;
6209;SDS011;3138;52.550;13.148;2022-09-21T13:43:24;8.57;;;0.87;;
6209;SDS011;3138;52.550;13.148;2022-09-21T13:49:22;1.20;;;0.93;;
6209;SDS011;3138;52.550;13.148;2022-09-21T13:52:20;0.57;;;0.57;;
6209;SDS011;3138;52.550;13.148;2022-09-21T13:54:54;0.60;;;0.60;;
6209;SDS011;3138;52.550;13.148;2022-09-21T13:57:25;0.53;;;0.53;;
6209;SDS011;3138;52.550;13.148;2022-09-21T14:00:22;1.43;;;0.60;;
6209;SDS011;3138;52.550;13.148;2022-09-21T14:02:59;0.50;;;0.50;;
6209;SDS011;3138;52.550;13.148;2022-09-21T14:05:29;0.73;;;0.50;;
6209;SDS011;3138;52.550;13.148;2022-09-21T14:08:02;1.30;;;0.83;;
6209;SDS011;3138;52.550;13.148;2022-09-21T14:10:32;0.73;;;0.73;;
6209;SDS011;3138;52.550;13.148;2022-09-21T14:13:00;0.73;;;0.73;;
6209;SDS011;3138;52.550;13.148;2022-09-21T14:15:33;2.37;;;0.83;;
6209;SDS011;3138;52.550;13.148;2022-09-21T14:21:10;0.80;;;0.80;;
6209;SDS011;3138;52.550;13.148;2022-09-21T14:23:42;1.03;;;0.50;;
6209;SDS011;3138;52.550;13.148;2022-09-21T14:26:46;0.53;;;0.53;;
6209;SDS011;3138;52.550;13.148;2022-09-21T14:29:19;0.50;;;0.50;;
6209;SDS011;3138;52.550;13.148;2022-09-21T14:31:47;0.70;;;0.70;;
6209;SDS011;3138;52.550;13.148;2022-09-21T14:34:18;1.80;;;0.80;;
6209;SDS011;3138;52.550;13.148;2022-09-21T14:36:49;0.73;;;0.70;;
6209;SDS011;3138;52.550;13.148;2022-09-21T14:39:21;0.80;;;0.80;;
6209;SDS011;3138;52.550;13.148;2022-09-21T14:41:52;2.37;;;1.10;;
6209;SDS011;3138;52.550;13.148;2022-09-21T14:44:21;0.77;;;0.77;;
6209;SDS011;3138;52.550;13.148;2022-09-21T14:46:59;0.87;;;0.87;;
6209;SDS011;3138;52.550;13.148;2022-09-21T14:50:03;1.57;;;0.50;;
6209;SDS011;3138;52.550;13.148;2022-09-21T14:53:08;1.43;;;1.33;;
6209;SDS011;3138;52.550;13.148;2022-09-21T14:56:01;1.03;;;0.87;;
6209;SDS011;3138;52.550;13.148;2022-09-21T14:58:44;0.77;;;0.60;;
6209;SDS011;3138;52.550;13.148;2022-09-21T15:01:33;0.80;;;0.80;;
6209;SDS011;3138;52.550;13.148;2022-09-21T15:04:07;3.60;;;0.90;;
6209;SDS011;3138;52.550;13.148;2022-09-21T15:07:06;1.13;;;0.70;;
6209;SDS011;3138;52.550;13.148;2022-09-21T15:13:10;0.50;;;0.50;;
6209;SDS011;3138;52.550;13.148;2022-09-21T15:15:45;1.33;;;0.60;;
6209;SDS011;3138;52.550;13.148;2022-09-21T15:18:21;1.30;;;0.67;;
6209;SDS011;3138;52.550;13.148;2022-09-21T15:20:56;2.10;;;0.60;;
6209;SDS011;3138;52.550;13.148;2022-09-21T15:23:27;0.97;;;0.63;;
6209;SDS011;3138;52.550;13.148;2022-09-21T15:25:58;0.80;;;0.80;;
6209;SDS011;3138;52.550;13.148;2022-09-21T15:28:30;0.90;;;0.90;;
6209;SDS011;3138;52.550;13.148;2022-09-21T15:31:00;1.07;;;0.40;;
6209;SDS011;3138;52.550;13.148;2022-09-21T15:33:27;0.77;;;0.50;;
6209;SDS011;3138;52.550;13.148;2022-09-21T15:35:58;0.50;;;0.50;;
6209;SDS011;3138;52.550;13.148;2022-09-21T15:38:27;2.63;;;0.70;;
6209;SDS011;3138;52.550;13.148;2022-09-21T15:40:55;0.60;;;0.60;;
6209;SDS011;3138;52.550;13.148;2022-09-21T15:43:22;2.27;;;0.57;;
6209;SDS011;3138;52.550;13.148;2022-09-21T15:45:51;2.70;;;0.70;;
6209;SDS011;3138;52.550;13.148;2022-09-21T15:48:20;1.03;;;0.87;;
6209;SDS011;3138;52.550;13.148;2022-09-21T15:50:47;3.07;;;0.50;;
6209;SDS011;3138;52.550;13.148;2022-09-21T15:53:18;0.30;;;0.30;;
6209;SDS011;3138;52.550;13.148;2022-09-21T15:55:48;0.60;;;0.60;;
6209;SDS011;3138;52.550;13.148;2022-09-21T15:58:19;0.57;;;0.57;;